Time;durP1;ratioP1;P1;durP2;ratioP2;P2;SDS_P1;SDS_P2;PMS_P1;PMS_P2;Temp;Humidity;BMP_temperature;BMP_pressure;BME280_temperature;BME280_humidity;BME280_pressure;Samples;Min_cycle;Max_cycle;Signal;HPM_P1;HPM_P2
2022/10/29 00:01:45;;;;;;;8.40;3.00;;;;;;;;;;10483354;28;20275;-73
2022/10/29 00:06:47;;;;;;;5.85;2.60;;;;;;;;;;10464909;28;20195;-72
2022/10/29 00:11:48;;;;;;;8.38;2.30;;;;;;;;;;10464977;28;20259;-73
2022/10/29 00:16:49;;;;;;;7.00;2.42;;;;;;;;;;10472675;28;21061;-74
2022/10/29 00:21:51;;;;;;;5.72;3.00;;;;;;;;;;10479663;28;20209;-73
2022/10/29 00:26:52;;;;;;;7.45;1.88;;;;;;;;;;10468924;28;20203;-73
2022/10/29 00:31:53;;;;;;;6.38;1.90;;;;;;;;;;10464931;28;20697;-73
2022/10/29 00:36:54;;;;;;;3.92;2.70;;;;;;;;;;10463586;28;20183;-74
2022/10/29 00:41:55;;;;;;;4.95;1.85;;;;;;;;;;10463624;28;20210;-73
2022/10/29 00:46:56;;;;;;;6.03;3.65;;;;;;;;;;10462948;28;20226;-72
2022/10/29 00:51:59;;;;;;;8.50;5.32;;;;;;;;;;10460582;28;20189;-73
2022/10/29 00:57:06;;;;;;;6.65;5.95;;;;;;;;;;10459580;28;20265;-73
2022/10/29 01:02:07;;;;;;;11.38;5.90;;;;;;;;;;10462001;28;20221;-73
2022/10/29 01:07:09;;;;;;;8.52;3.50;;;;;;;;;;10462418;28;20189;-73
2022/10/29 01:12:10;;;;;;;5.15;3.80;;;;;;;;;;10461331;28;20206;-73
2022/10/29 01:17:17;;;;;;;4.57;2.65;;;;;;;;;;10462547;28;20232;-73
2022/10/29 01:22:24;;;;;;;6.80;3.28;;;;;;;;;;10461408;28;20211;-72
2022/10/29 01:27:44;;;;;;;3.05;2.80;;;;;;;;;;10460696;28;20194;-73
2022/10/29 01:32:45;;;;;;;8.50;2.72;;;;;;;;;;10457480;28;20604;-73
2022/10/29 01:38:06;;;;;;;5.72;2.58;;;;;;;;;;10463001;28;20195;-73
2022/10/29 01:43:20;;;;;;;2.45;2.25;;;;;;;;;;10463138;28;20225;-73
2022/10/29 01:48:32;;;;;;;4.32;2.42;;;;;;;;;;10462458;28;20241;-73
2022/10/29 01:53:35;;;;;;;4.78;2.67;;;;;;;;;;10460508;28;20190;-72
2022/10/29 01:58:37;;;;;;;7.70;3.35;;;;;;;;;;10459886;28;20292;-73
2022/10/29 02:03:40;;;;;;;3.55;3.03;;;;;;;;;;10460730;28;20217;-72
2022/10/29 02:08:48;;;;;;;5.90;2.85;;;;;;;;;;10458016;28;20194;-73
2022/10/29 02:14:09;;;;;;;5.93;2.88;;;;;;;;;;10457591;28;20218;-73
2022/10/29 02:19:10;;;;;;;8.73;3.22;;;;;;;;;;10462179;28;20229;-73
2022/10/29 02:24:11;;;;;;;7.65;3.13;;;;;;;;;;10460956;28;20187;-73
2022/10/29 02:29:12;;;;;;;11.38;3.30;;;;;;;;;;10462720;28;20217;-73
2022/10/29 02:34:14;;;;;;;4.82;3.03;;;;;;;;;;10460369;28;20214;-73
2022/10/29 02:39:15;;;;;;;6.50;2.67;;;;;;;;;;10457096;28;20229;-73
2022/10/29 02:44:16;;;;;;;5.13;2.22;;;;;;;;;;10459795;28;20218;-72
2022/10/29 02:49:17;;;;;;;7.18;2.85;;;;;;;;;;10460872;28;20214;-73
2022/10/29 02:54:18;;;;;;;6.55;2.67;;;;;;;;;;10458357;28;20190;-73
2022/10/29 02:59:19;;;;;;;3.80;2.45;;;;;;;;;;10463012;28;20230;-73
2022/10/29 03:04:20;;;;;;;6.95;2.72;;;;;;;;;;10468719;28;20225;-73
2022/10/29 03:09:21;;;;;;;3.65;2.60;;;;;;;;;;10457798;28;20195;-73
2022/10/29 03:14:22;;;;;;;2.22;2.03;;;;;;;;;;10456679;28;20296;-73
2022/10/29 03:19:24;;;;;;;3.45;2.10;;;;;;;;;;10459425;28;20222;-73
2022/10/29 03:24:25;;;;;;;3.17;2.95;;;;;;;;;;10458313;28;20750;-73
2022/10/29 03:29:26;;;;;;;9.18;2.60;;;;;;;;;;10460184;28;20195;-73
2022/10/29 03:34:27;;;;;;;4.60;2.60;;;;;;;;;;10459014;28;20230;-73
2022/10/29 03:39:28;;;;;;;4.70;2.10;;;;;;;;;;10458980;28;20243;-73
2022/10/29 03:44:29;;;;;;;3.47;2.40;;;;;;;;;;10469652;28;20321;-73
2022/10/29 03:49:30;;;;;;;3.03;2.58;;;;;;;;;;10465703;28;20618;-73
2022/10/29 03:54:31;;;;;;;5.43;2.88;;;;;;;;;;10462150;28;20934;-73
2022/10/29 03:59:32;;;;;;;7.13;3.00;;;;;;;;;;10463251;28;20875;-73
2022/10/29 04:04:33;;;;;;;4.35;2.38;;;;;;;;;;10462116;28;20761;-73
2022/10/29 04:09:35;;;;;;;2.88;2.10;;;;;;;;;;10462096;28;20538;-73
2022/10/29 04:14:36;;;;;;;5.53;1.92;;;;;;;;;;10464175;28;20246;-73
2022/10/29 04:19:37;;;;;;;2.80;2.60;;;;;;;;;;10465134;28;20229;-73
2022/10/29 04:24:38;;;;;;;8.30;3.15;;;;;;;;;;10465773;28;20269;-73
2022/10/29 04:29:39;;;;;;;2.05;1.80;;;;;;;;;;10467580;28;20249;-72
2022/10/29 04:34:40;;;;;;;2.53;2.33;;;;;;;;;;10477143;28;20606;-72
2022/10/29 04:39:41;;;;;;;5.85;2.38;;;;;;;;;;10460669;28;20218;-73
2022/10/29 04:44:43;;;;;;;8.48;3.28;;;;;;;;;;10465868;28;20289;-73
2022/10/29 04:49:44;;;;;;;3.00;2.60;;;;;;;;;;10458340;28;20218;-73
2022/10/29 04:54:45;;;;;;;4.57;2.83;;;;;;;;;;10462308;28;20225;-76
2022/10/29 04:59:46;;;;;;;5.70;2.63;;;;;;;;;;10465174;28;20206;-72
2022/10/29 05:04:47;;;;;;;2.45;2.17;;;;;;;;;;10459294;28;20233;-73
2022/10/29 05:09:48;;;;;;;4.05;2.53;;;;;;;;;;10461546;28;20607;-73
2022/10/29 05:14:49;;;;;;;4.53;3.10;;;;;;;;;;10462591;28;20217;-72
2022/10/29 05:19:50;;;;;;;6.15;2.03;;;;;;;;;;10445495;28;20244;-72
2022/10/29 05:24:51;;;;;;;6.70;2.95;;;;;;;;;;10456738;28;20190;-73
2022/10/29 05:29:52;;;;;;;2.55;2.35;;;;;;;;;;10457816;28;20291;-73
2022/10/29 05:34:53;;;;;;;3.70;2.35;;;;;;;;;;10458521;28;20253;-73
2022/10/29 05:39:54;;;;;;;3.00;2.78;;;;;;;;;;10462641;28;20221;-72
2022/10/29 05:44:55;;;;;;;6.25;3.67;;;;;;;;;;10449004;28;20256;-72
2022/10/29 05:49:57;;;;;;;4.05;3.17;;;;;;;;;;10452542;28;20214;-71
2022/10/29 05:54:58;;;;;;;7.30;3.38;;;;;;;;;;10453296;28;20252;-71
2022/10/29 05:59:59;;;;;;;6.68;4.40;;;;;;;;;;10458384;28;20255;-72
2022/10/29 06:05:00;;;;;;;7.05;4.40;;;;;;;;;;10452974;28;20243;-70
2022/10/29 06:10:01;;;;;;;5.35;4.13;;;;;;;;;;10448661;28;20205;-72
2022/10/29 06:15:02;;;;;;;6.45;4.80;;;;;;;;;;10454266;28;20241;-72
2022/10/29 06:20:03;;;;;;;5.38;4.43;;;;;;;;;;10453671;28;20217;-72
2022/10/29 06:25:05;;;;;;;8.32;4.53;;;;;;;;;;10455007;28;20193;-72
2022/10/29 06:30:06;;;;;;;10.63;4.57;;;;;;;;;;10455520;28;20202;-72
2022/10/29 06:35:09;;;;;;;10.75;5.28;;;;;;;;;;10449704;28;20729;-72
2022/10/29 06:40:10;;;;;;;12.60;4.53;;;;;;;;;;10451855;28;20790;-73
2022/10/29 06:45:12;;;;;;;6.95;3.80;;;;;;;;;;10345909;28;20717;-72
2022/10/29 06:50:13;;;;;;;7.15;4.60;;;;;;;;;;10356898;28;20192;-72
2022/10/29 06:55:14;;;;;;;13.43;5.03;;;;;;;;;;10351075;28;20234;-72
2022/10/29 07:00:15;;;;;;;7.07;3.95;;;;;;;;;;10416557;28;20215;-71
2022/10/29 07:05:16;;;;;;;13.85;4.60;;;;;;;;;;10416427;28;20293;-72
2022/10/29 07:10:17;;;;;;;10.02;4.45;;;;;;;;;;10420083;28;20191;-71
2022/10/29 07:15:18;;;;;;;10.65;5.18;;;;;;;;;;10420838;28;20198;-71
2022/10/29 07:20:19;;;;;;;10.05;5.63;;;;;;;;;;10412913;28;20986;-72
2022/10/29 07:25:20;;;;;;;10.30;5.82;;;;;;;;;;10417554;28;20199;-71
2022/10/29 07:30:22;;;;;;;12.18;5.13;;;;;;;;;;10406814;28;20305;-71
2022/10/29 07:35:23;;;;;;;10.55;5.80;;;;;;;;;;10426706;28;20196;-72
2022/10/29 07:40:24;;;;;;;12.40;5.65;;;;;;;;;;10420829;28;20613;-72
2022/10/29 07:45:25;;;;;;;12.95;6.28;;;;;;;;;;10419207;28;20227;-71
2022/10/29 07:50:27;;;;;;;12.35;5.85;;;;;;;;;;10423919;28;20195;-72
2022/10/29 07:55:28;;;;;;;6.78;5.32;;;;;;;;;;10416091;28;20704;-71
2022/10/29 08:00:30;;;;;;;15.13;5.50;;;;;;;;;;10425282;28;20223;-70
2022/10/29 08:05:31;;;;;;;9.55;5.82;;;;;;;;;;10420307;28;20198;-70
2022/10/29 08:10:33;;;;;;;8.55;5.00;;;;;;;;;;10423720;28;20278;-71
2022/10/29 08:15:35;;;;;;;12.50;5.30;;;;;;;;;;10424115;28;20825;-71
2022/10/29 08:20:36;;;;;;;9.93;5.78;;;;;;;;;;10425752;28;20306;-71
2022/10/29 08:25:40;;;;;;;9.43;4.80;;;;;;;;;;10426951;28;20209;-71
2022/10/29 08:30:42;;;;;;;6.47;4.05;;;;;;;;;;10424077;28;20223;-71
2022/10/29 08:35:43;;;;;;;7.43;3.90;;;;;;;;;;10423698;28;20187;-68
2022/10/29 08:40:51;;;;;;;11.13;4.55;;;;;;;;;;10418741;28;20222;-71
2022/10/29 08:45:53;;;;;;;8.02;4.13;;;;;;;;;;10421549;28;20227;-71
2022/10/29 08:51:04;;;;;;;10.13;4.00;;;;;;;;;;10415757;28;20219;-71
2022/10/29 08:56:06;;;;;;;11.20;4.43;;;;;;;;;;10418836;28;21032;-71
2022/10/29 09:01:10;;;;;;;9.80;4.00;;;;;;;;;;10421702;28;20277;-71
2022/10/29 09:06:13;;;;;;;14.40;4.88;;;;;;;;;;10424029;28;20204;-71
2022/10/29 09:11:14;;;;;;;11.52;5.35;;;;;;;;;;10419324;28;20279;-70
2022/10/29 09:16:32;;;;;;;11.73;5.00;;;;;;;;;;10420863;28;20823;-70
2022/10/29 09:21:37;;;;;;;14.75;4.20;;;;;;;;;;10420579;28;20226;-70
2022/10/29 09:26:47;;;;;;;5.82;3.83;;;;;;;;;;10421495;28;20723;-69
2022/10/29 09:31:52;;;;;;;10.43;4.05;;;;;;;;;;10421682;28;20782;-70
2022/10/29 09:36:54;;;;;;;6.70;3.88;;;;;;;;;;10390934;28;20272;-72
2022/10/29 09:41:56;;;;;;;6.68;4.13;;;;;;;;;;10419307;28;20227;-72
2022/10/29 09:47:03;;;;;;;7.07;4.15;;;;;;;;;;10417762;28;20305;-73
2022/10/29 09:52:06;;;;;;;14.07;3.40;;;;;;;;;;10419577;28;20216;-72
2022/10/29 09:57:12;;;;;;;9.45;3.25;;;;;;;;;;10406465;28;20210;-72
2022/10/29 10:02:32;;;;;;;10.57;3.50;;;;;;;;;;10419202;28;20243;-72
2022/10/29 10:07:33;;;;;;;12.60;3.42;;;;;;;;;;10404530;28;20705;-73
2022/10/29 10:12:37;;;;;;;11.23;4.05;;;;;;;;;;10412349;28;20676;-71
2022/10/29 10:17:57;;;;;;;6.43;3.83;;;;;;;;;;10410082;28;20268;-71
2022/10/29 10:22:58;;;;;;;10.85;3.30;;;;;;;;;;10415963;28;22268;-71
2022/10/29 10:28:02;;;;;;;4.40;3.53;;;;;;;;;;10411408;28;20949;-70
2022/10/29 10:33:11;;;;;;;7.60;3.78;;;;;;;;;;10420686;28;20215;-71
2022/10/29 10:38:13;;;;;;;11.77;3.60;;;;;;;;;;10404331;28;20222;-72
2022/10/29 10:43:20;;;;;;;6.25;3.30;;;;;;;;;;10413557;28;20230;-71
2022/10/29 10:48:22;;;;;;;7.22;4.50;;;;;;;;;;10408207;28;20207;-70
2022/10/29 10:53:23;;;;;;;7.47;3.90;;;;;;;;;;10414756;28;20740;-71
2022/10/29 10:58:40;;;;;;;14.60;4.22;;;;;;;;;;10405060;28;20334;-71
2022/10/29 11:03:43;;;;;;;9.32;4.75;;;;;;;;;;10410295;28;20220;-70
2022/10/29 11:08:50;;;;;;;15.18;4.47;;;;;;;;;;10410844;28;20369;-70
2022/10/29 11:13:51;;;;;;;10.63;4.07;;;;;;;;;;10405026;28;20246;-71
2022/10/29 11:18:56;;;;;;;9.65;4.35;;;;;;;;;;10390113;28;20223;-70
2022/10/29 11:24:04;;;;;;;8.63;4.07;;;;;;;;;;10412293;28;20211;-70
2022/10/29 11:29:08;;;;;;;14.73;4.25;;;;;;;;;;10404717;28;20735;-70
2022/10/29 11:34:18;;;;;;;15.63;4.47;;;;;;;;;;10399167;28;20222;-70
2022/10/29 11:39:22;;;;;;;11.73;4.50;;;;;;;;;;10408012;28;20277;-70
2022/10/29 11:44:23;;;;;;;9.20;5.05;;;;;;;;;;10413785;28;20242;-70
2022/10/29 11:49:24;;;;;;;6.15;3.80;;;;;;;;;;10406641;28;20211;-70
2022/10/29 11:54:39;;;;;;;10.30;4.78;;;;;;;;;;10408844;28;20227;-70
2022/10/29 12:00:00;;;;;;;8.20;3.92;;;;;;;;;;10412248;28;20215;-70
2022/10/29 12:05:06;;;;;;;10.45;3.72;;;;;;;;;;10400963;28;20272;-70
2022/10/29 12:10:25;;;;;;;15.43;4.10;;;;;;;;;;10418451;28;20718;-70
2022/10/29 12:15:37;;;;;;;5.85;3.78;;;;;;;;;;10415157;28;20218;-71
2022/10/29 12:20:38;;;;;;;13.38;3.90;;;;;;;;;;10415067;28;20219;-70
2022/10/29 12:25:46;;;;;;;9.35;3.65;;;;;;;;;;10423419;28;20290;-70
2022/10/29 12:31:10;;;;;;;7.53;3.83;;;;;;;;;;10416974;28;20223;-69
2022/10/29 12:36:22;;;;;;;10.27;3.85;;;;;;;;;;10402021;28;20215;-70
2022/10/29 12:41:24;;;;;;;10.60;3.95;;;;;;;;;;10420136;28;20234;-70
2022/10/29 12:46:35;;;;;;;11.73;3.55;;;;;;;;;;10415511;28;20611;-71
2022/10/29 12:51:54;;;;;;;10.82;3.88;;;;;;;;;;10417449;28;20233;-69
2022/10/29 12:56:56;;;;;;;11.80;4.43;;;;;;;;;;10415015;28;20276;-69
2022/10/29 13:02:15;;;;;;;12.73;4.28;;;;;;;;;;10415585;28;20226;-69
2022/10/29 13:07:19;;;;;;;10.23;4.20;;;;;;;;;;10414481;28;20214;-69
2022/10/29 13:12:50;;;;;;;9.43;4.82;;;;;;;;;;10412522;28;20326;-70
2022/10/29 13:17:52;;;;;;;8.48;4.00;;;;;;;;;;10411474;28;20858;-70
2022/10/29 13:22:57;;;;;;;11.13;4.90;;;;;;;;;;10418873;28;21003;-70
2022/10/29 13:27:58;;;;;;;8.27;4.63;;;;;;;;;;10423602;28;20298;-70
2022/10/29 13:32:59;;;;;;;7.53;4.72;;;;;;;;;;10415470;28;20217;-70
2022/10/29 13:38:10;;;;;;;4.90;4.18;;;;;;;;;;10413128;28;20210;-70
2022/10/29 13:43:17;;;;;;;8.95;4.00;;;;;;;;;;10411304;28;20230;-69
2022/10/29 13:48:44;;;;;;;8.07;3.75;;;;;;;;;;10417698;28;20211;-70
2022/10/29 13:53:54;;;;;;;4.28;3.75;;;;;;;;;;10409465;28;20222;-70
2022/10/29 13:58:57;;;;;;;10.40;3.83;;;;;;;;;;10413899;28;20702;-69
2022/10/29 14:04:00;;;;;;;12.90;3.80;;;;;;;;;;10416594;28;20217;-71
2022/10/29 14:09:12;;;;;;;8.52;4.13;;;;;;;;;;10422936;28;20219;-70
2022/10/29 14:14:36;;;;;;;10.10;4.03;;;;;;;;;;10418683;28;20215;-71
2022/10/29 14:19:42;;;;;;;13.52;3.63;;;;;;;;;;10409624;28;20218;-70
2022/10/29 14:24:43;;;;;;;6.20;3.50;;;;;;;;;;10419696;28;22426;-70
2022/10/29 14:29:45;;;;;;;11.57;4.72;;;;;;;;;;10420274;28;20306;-70
2022/10/29 14:34:49;;;;;;;8.98;3.88;;;;;;;;;;10406577;28;20215;-70
2022/10/29 14:39:52;;;;;;;8.65;3.85;;;;;;;;;;10413172;28;20223;-70
2022/10/29 14:44:55;;;;;;;12.95;4.28;;;;;;;;;;10413534;28;20760;-70
2022/10/29 14:50:21;;;;;;;10.65;4.70;;;;;;;;;;10419380;28;20237;-70
2022/10/29 14:55:48;;;;;;;12.25;3.97;;;;;;;;;;10414492;28;20211;-70
2022/10/29 15:00:53;;;;;;;7.60;4.20;;;;;;;;;;10414787;28;21005;-70
2022/10/29 15:06:11;;;;;;;8.05;4.07;;;;;;;;;;10415678;28;20223;-70
2022/10/29 15:11:31;;;;;;;4.10;3.38;;;;;;;;;;10412799;28;20989;-70
2022/10/29 15:16:33;;;;;;;8.95;3.97;;;;;;;;;;10428607;28;20225;-71
2022/10/29 15:21:35;;;;;;;7.80;4.03;;;;;;;;;;10414968;28;20330;-71
2022/10/29 15:26:44;;;;;;;7.10;3.80;;;;;;;;;;10415277;28;20222;-71
2022/10/29 15:31:49;;;;;;;7.15;3.50;;;;;;;;;;10414481;28;20581;-71
2022/10/29 15:36:58;;;;;;;6.03;4.05;;;;;;;;;;10418383;28;20218;-71
2022/10/29 15:42:00;;;;;;;9.38;5.53;;;;;;;;;;10406442;28;20281;-70
2022/10/29 15:47:02;;;;;;;8.38;5.28;;;;;;;;;;10419070;28;20309;-69
2022/10/29 15:52:04;;;;;;;5.75;4.60;;;;;;;;;;10423744;28;20215;-70
2022/10/29 15:57:05;;;;;;;7.93;4.05;;;;;;;;;;10419897;28;20225;-72
2022/10/29 16:02:16;;;;;;;7.05;3.75;;;;;;;;;;10417474;28;20769;-72
2022/10/29 16:07:17;;;;;;;5.15;3.95;;;;;;;;;;10418940;28;20203;-71
2022/10/29 16:12:18;;;;;;;13.25;4.60;;;;;;;;;;10419782;28;20225;-73
2022/10/29 16:17:20;;;;;;;11.43;4.88;;;;;;;;;;10418084;28;20227;-71
2022/10/29 16:22:30;;;;;;;10.73;4.97;;;;;;;;;;10426224;28;20250;-71
2022/10/29 16:27:31;;;;;;;9.85;4.60;;;;;;;;;;10412077;28;20219;-71
2022/10/29 16:32:32;;;;;;;11.43;5.28;;;;;;;;;;10413314;28;20361;-71
2022/10/29 16:37:33;;;;;;;5.32;4.80;;;;;;;;;;10410508;28;20641;-71
2022/10/29 16:42:35;;;;;;;10.27;4.47;;;;;;;;;;10412696;28;20709;-71
2022/10/29 16:47:36;;;;;;;11.52;4.85;;;;;;;;;;10411061;28;20235;-72
2022/10/29 16:52:37;;;;;;;7.63;3.67;;;;;;;;;;10414271;28;20233;-72
2022/10/29 16:57:38;;;;;;;10.20;6.85;;;;;;;;;;10410880;28;20312;-71
2022/10/29 17:02:43;;;;;;;9.02;5.13;;;;;;;;;;10423439;28;20262;-71
2022/10/29 17:07:44;;;;;;;8.23;5.10;;;;;;;;;;10412621;28;20273;-71
2022/10/29 17:12:45;;;;;;;7.35;5.53;;;;;;;;;;10414457;28;20227;-72
2022/10/29 17:17:46;;;;;;;4.47;4.00;;;;;;;;;;10408333;28;20361;-72
2022/10/29 17:22:47;;;;;;;5.75;4.45;;;;;;;;;;10415596;28;20226;-72
2022/10/29 17:27:48;;;;;;;6.05;5.53;;;;;;;;;;10418054;28;20312;-70
2022/10/29 17:32:50;;;;;;;13.43;8.68;;;;;;;;;;10421321;28;20226;-72
2022/10/29 17:37:51;;;;;;;7.57;6.20;;;;;;;;;;10426744;28;20210;-72
2022/10/29 17:42:52;;;;;;;11.32;5.93;;;;;;;;;;10414350;28;20289;-72
2022/10/29 17:47:56;;;;;;;6.53;5.95;;;;;;;;;;10413850;28;20219;-72
2022/10/29 17:52:57;;;;;;;7.40;6.32;;;;;;;;;;10411949;28;20276;-69
2022/10/29 17:57:58;;;;;;;14.15;7.50;;;;;;;;;;10412866;28;20218;-69
2022/10/29 18:03:00;;;;;;;8.00;6.13;;;;;;;;;;10406866;28;20226;-68
2022/10/29 18:08:01;;;;;;;13.25;8.40;;;;;;;;;;10410985;28;20237;-69
2022/10/29 18:13:02;;;;;;;13.63;8.40;;;;;;;;;;10403484;28;20250;-71
2022/10/29 18:18:03;;;;;;;13.27;7.50;;;;;;;;;;10398959;28;21692;-69
2022/10/29 18:23:04;;;;;;;10.73;7.03;;;;;;;;;;10405719;28;20780;-68
2022/10/29 18:28:06;;;;;;;12.38;6.75;;;;;;;;;;10410151;28;20242;-68
2022/10/29 18:33:07;;;;;;;9.93;6.43;;;;;;;;;;10407522;28;20222;-68
2022/10/29 18:38:08;;;;;;;19.23;10.88;;;;;;;;;;10406469;28;20276;-68
2022/10/29 18:43:09;;;;;;;8.40;6.90;;;;;;;;;;10402523;28;20233;-69
2022/10/29 18:48:10;;;;;;;23.55;13.70;;;;;;;;;;10406160;28;21008;-69
2022/10/29 18:53:11;;;;;;;22.50;13.68;;;;;;;;;;10408066;28;20235;-67
2022/10/29 18:58:12;;;;;;;22.73;12.00;;;;;;;;;;10407997;28;20302;-68
2022/10/29 19:03:14;;;;;;;12.80;10.48;;;;;;;;;;10407425;28;20244;-69
2022/10/29 19:08:15;;;;;;;14.00;9.77;;;;;;;;;;10410369;28;20225;-69
2022/10/29 19:13:16;;;;;;;13.30;8.23;;;;;;;;;;10409526;28;20250;-68
2022/10/29 19:18:17;;;;;;;14.68;9.77;;;;;;;;;;10412918;28;20757;-71
2022/10/29 19:23:18;;;;;;;8.70;6.00;;;;;;;;;;10416395;28;20338;-67
2022/10/29 19:28:19;;;;;;;12.70;6.70;;;;;;;;;;10414019;28;20253;-67
2022/10/29 19:33:20;;;;;;;8.38;5.65;;;;;;;;;;10416004;28;20223;-66
2022/10/29 19:38:21;;;;;;;9.23;5.85;;;;;;;;;;10419827;28;20226;-69
2022/10/29 19:43:23;;;;;;;12.73;6.03;;;;;;;;;;10410193;28;20254;-68
2022/10/29 19:48:24;;;;;;;7.75;5.47;;;;;;;;;;10417113;28;20219;-67
2022/10/29 19:53:25;;;;;;;9.73;5.47;;;;;;;;;;10416598;28;20686;-68
2022/10/29 19:58:27;;;;;;;10.23;5.88;;;;;;;;;;10412221;28;20223;-66
2022/10/29 20:03:28;;;;;;;8.38;6.80;;;;;;;;;;10414455;28;20227;-67
2022/10/29 20:08:29;;;;;;;11.32;6.88;;;;;;;;;;10418569;28;20702;-67
2022/10/29 20:13:30;;;;;;;12.18;6.88;;;;;;;;;;10417514;28;20233;-69
2022/10/29 20:18:33;;;;;;;15.07;7.25;;;;;;;;;;10421922;28;20219;-69
2022/10/29 20:23:34;;;;;;;8.93;6.70;;;;;;;;;;10421644;28;20593;-69
2022/10/29 20:28:35;;;;;;;12.95;7.68;;;;;;;;;;10422580;28;20237;-69
2022/10/29 20:33:37;;;;;;;7.25;6.55;;;;;;;;;;10421680;28;20353;-70
2022/10/29 20:38:38;;;;;;;11.73;7.68;;;;;;;;;;10420223;28;20309;-69
2022/10/29 20:43:39;;;;;;;9.88;6.95;;;;;;;;;;10417861;28;20711;-69
2022/10/29 20:48:40;;;;;;;8.93;5.68;;;;;;;;;;10418147;28;20715;-69
2022/10/29 20:53:41;;;;;;;9.98;6.53;;;;;;;;;;10420997;28;20699;-69
2022/10/29 20:58:42;;;;;;;11.57;6.38;;;;;;;;;;10419950;28;20309;-69
2022/10/29 21:03:44;;;;;;;6.75;6.15;;;;;;;;;;10421111;28;20597;-69
2022/10/29 21:08:46;;;;;;;7.03;5.47;;;;;;;;;;10418001;28;20229;-69
2022/10/29 21:13:47;;;;;;;8.48;5.45;;;;;;;;;;10417196;28;20220;-69
2022/10/29 21:18:49;;;;;;;10.50;6.78;;;;;;;;;;10419148;28;20311;-69
2022/10/29 21:23:51;;;;;;;6.93;6.03;;;;;;;;;;10420876;28;20211;-69
2022/10/29 21:28:52;;;;;;;10.10;6.03;;;;;;;;;;10420107;28;20301;-69
2022/10/29 21:33:54;;;;;;;9.30;7.03;;;;;;;;;;10423563;28;20228;-69
2022/10/29 21:38:55;;;;;;;18.15;8.32;;;;;;;;;;10418808;28;20223;-69
2022/10/29 21:43:56;;;;;;;13.15;7.68;;;;;;;;;;10415038;28;20239;-69
2022/10/29 21:48:57;;;;;;;11.00;7.78;;;;;;;;;;10409188;28;20557;-69
2022/10/29 21:53:58;;;;;;;8.80;7.10;;;;;;;;;;10411868;28;20216;-70
2022/10/29 21:58:59;;;;;;;11.10;7.60;;;;;;;;;;10411132;28;20280;-69
2022/10/29 22:04:00;;;;;;;11.32;8.23;;;;;;;;;;10407942;28;20223;-69
2022/10/29 22:09:01;;;;;;;12.68;7.35;;;;;;;;;;10410108;28;20540;-69
2022/10/29 22:14:03;;;;;;;14.13;6.90;;;;;;;;;;10407537;28;20246;-69
2022/10/29 22:19:04;;;;;;;10.05;6.57;;;;;;;;;;10413396;28;20307;-69
2022/10/29 22:24:05;;;;;;;8.02;6.07;;;;;;;;;;10410064;28;20211;-69
2022/10/29 22:29:06;;;;;;;7.88;5.93;;;;;;;;;;10406327;28;20306;-69
2022/10/29 22:34:07;;;;;;;13.68;6.43;;;;;;;;;;10413412;28;20226;-69
2022/10/29 22:39:08;;;;;;;10.27;6.82;;;;;;;;;;10405630;28;20310;-69
2022/10/29 22:44:09;;;;;;;15.55;8.35;;;;;;;;;;10409006;28;20257;-70
2022/10/29 22:49:11;;;;;;;9.50;6.72;;;;;;;;;;10408405;28;20226;-69
2022/10/29 22:54:12;;;;;;;10.35;6.40;;;;;;;;;;10420621;28;20218;-69
2022/10/29 22:59:13;;;;;;;9.15;7.05;;;;;;;;;;10414454;28;20220;-69
2022/10/29 23:04:14;;;;;;;8.65;6.63;;;;;;;;;;10414528;28;20377;-69
2022/10/29 23:09:15;;;;;;;13.65;6.82;;;;;;;;;;10410853;28;20242;-69
2022/10/29 23:14:16;;;;;;;10.98;7.50;;;;;;;;;;10415557;28;20218;-70
2022/10/29 23:19:17;;;;;;;10.38;6.60;;;;;;;;;;10412002;28;20238;-70
2022/10/29 23:24:18;;;;;;;14.45;8.10;;;;;;;;;;10414957;28;20699;-69
2022/10/29 23:29:19;;;;;;;9.68;7.03;;;;;;;;;;10413808;28;20605;-69
2022/10/29 23:34:20;;;;;;;9.10;7.10;;;;;;;;;;10414916;28;20246;-69
2022/10/29 23:39:22;;;;;;;15.15;7.47;;;;;;;;;;10415882;28;20633;-69
2022/10/29 23:44:23;;;;;;;9.88;6.95;;;;;;;;;;10410128;28;20238;-69
2022/10/29 23:49:24;;;;;;;7.60;6.63;;;;;;;;;;10412629;28;20238;-69
2022/10/29 23:54:25;;;;;;;9.63;6.65;;;;;;;;;;10410287;28;20758;-69
2022/10/29 23:59:26;;;;;;;10.48;6.78;;;;;;;;;;10417965;28;20801;-68
